Time;durP1;ratioP1;P1;durP2;ratioP2;P2;SDS_P1;SDS_P2;PMS_P1;PMS_P2;Temp;Humidity;BMP_temperature;BMP_pressure;BME280_temperature;BME280_humidity;BME280_pressure;Samples;Min_cycle;Max_cycle;Signal;HPM_P1;HPM_P2
2023/03/13 00:01:39;;;;;;;8.95;0.98;;;8.90;99.90;;;;;;5029462;28;20164;-87
2023/03/13 00:04:05;;;;;;;6.63;0.68;;;8.90;99.90;;;;;;5032356;28;20098;-86
2023/03/13 00:06:33;;;;;;;5.22;0.52;;;8.90;99.90;;;;;;5045932;28;20112;-88
2023/03/13 00:09:00;;;;;;;10.05;1.13;;;8.90;99.90;;;;;;5037231;28;20024;-86
2023/03/13 00:11:27;;;;;;;6.95;0.85;;;8.90;99.90;;;;;;5033274;28;20051;-88
2023/03/13 00:13:57;;;;;;;10.35;0.70;;;8.80;99.90;;;;;;5011259;28;20029;-86
2023/03/13 00:16:23;;;;;;;4.82;0.70;;;8.80;99.90;;;;;;5024083;28;20052;-87
2023/03/13 00:18:51;;;;;;;5.50;0.52;;;8.80;99.90;;;;;;5010607;28;20836;-86
2023/03/13 00:21:19;;;;;;;4.97;0.85;;;8.80;99.90;;;;;;5021508;28;20486;-86
2023/03/13 00:23:45;;;;;;;7.07;0.85;;;8.80;99.90;;;;;;5051446;28;20102;-88
2023/03/13 00:26:14;;;;;;;11.20;1.15;;;8.80;99.90;;;;;;5029306;28;20037;-88
2023/03/13 00:28:41;;;;;;;5.82;0.40;;;8.80;99.90;;;;;;5036383;28;20500;-87
2023/03/13 00:31:09;;;;;;;5.28;0.60;;;8.80;99.90;;;;;;5023642;28;20017;-87
2023/03/13 00:33:37;;;;;;;10.02;0.70;;;8.80;99.90;;;;;;5026925;28;20121;-89
2023/03/13 00:36:06;;;;;;;11.45;1.08;;;8.80;99.90;;;;;;5024492;28;20034;-87
2023/03/13 00:38:32;;;;;;;6.25;0.70;;;8.90;99.90;;;;;;5020944;28;20381;-87
2023/03/13 00:41:03;;;;;;;7.22;0.60;;;8.90;99.90;;;;;;5033208;28;20076;-88
2023/03/13 00:43:29;;;;;;;6.18;0.50;;;8.90;99.90;;;;;;5024999;28;20022;-88
2023/03/13 00:45:55;;;;;;;8.18;0.60;;;8.90;99.90;;;;;;5032893;28;20385;-87
2023/03/13 00:48:21;;;;;;;5.45;0.63;;;8.90;99.90;;;;;;5042369;28;20022;-88
2023/03/13 00:50:47;;;;;;;7.55;0.50;;;8.90;99.90;;;;;;5020462;28;20435;-88
2023/03/13 00:53:13;;;;;;;6.32;0.60;;;8.90;99.90;;;;;;5027439;28;20051;-88
2023/03/13 00:55:49;;;;;;;9.25;0.60;;;8.90;99.90;;;;;;5021929;28;20119;-87
2023/03/13 00:58:15;;;;;;;4.95;0.65;;;8.90;99.90;;;;;;5030569;28;20025;-88
2023/03/13 01:00:40;;;;;;;5.82;0.50;;;8.90;99.90;;;;;;5023807;28;20040;-88
2023/03/13 01:03:06;;;;;;;6.75;0.60;;;8.90;99.90;;;;;;5010046;28;20021;-86
2023/03/13 01:05:31;;;;;;;12.45;0.90;;;8.90;99.90;;;;;;5050242;28;20033;-88
2023/03/13 01:07:58;;;;;;;10.70;0.80;;;8.90;99.90;;;;;;5024141;28;20021;-88
2023/03/13 01:10:24;;;;;;;6.75;0.52;;;8.90;99.90;;;;;;5040325;28;20040;-88
2023/03/13 01:12:49;;;;;;;7.60;0.73;;;8.80;99.90;;;;;;5021210;28;20029;-89
2023/03/13 01:15:15;;;;;;;14.05;1.10;;;8.90;99.90;;;;;;5024775;28;20064;-88
2023/03/13 01:17:43;;;;;;;8.43;0.60;;;8.90;99.90;;;;;;5045670;28;20117;-87
2023/03/13 01:20:09;;;;;;;5.35;0.50;;;8.80;99.90;;;;;;5018276;28;20132;-88
2023/03/13 01:22:35;;;;;;;6.70;0.60;;;8.80;99.90;;;;;;5022486;28;20029;-88
2023/03/13 01:25:00;;;;;;;8.77;1.27;;;8.80;99.90;;;;;;5019751;28;20044;-90
2023/03/13 01:27:27;;;;;;;11.00;1.33;;;8.80;99.90;;;;;;5048485;28;20045;-88
2023/03/13 01:29:53;;;;;;;9.25;1.15;;;8.80;99.90;;;;;;5023191;28;20168;-88
2023/03/13 01:32:20;;;;;;;8.90;0.95;;;8.90;99.90;;;;;;5028542;28;20021;-88
2023/03/13 01:34:45;;;;;;;10.23;0.60;;;8.80;99.90;;;;;;5032437;28;20355;-89
2023/03/13 01:37:11;;;;;;;7.47;0.50;;;8.90;99.90;;;;;;5014916;28;20478;-89
2023/03/13 01:39:37;;;;;;;9.27;0.80;;;8.90;99.90;;;;;;5015588;28;20033;-87
2023/03/13 01:42:04;;;;;;;9.15;0.85;;;9.00;99.90;;;;;;5011574;28;20021;-88
2023/03/13 01:44:47;;;;;;;5.75;0.57;;;8.90;99.90;;;;;;5033001;28;20033;-88
2023/03/13 01:47:13;;;;;;;5.47;0.50;;;8.90;99.90;;;;;;5014235;28;20032;-88
2023/03/13 01:49:57;;;;;;;10.02;1.45;;;9.00;99.90;;;;;;5038596;28;20037;-88
2023/03/13 01:52:48;;;;;;;8.35;0.70;;;9.00;99.90;;;;;;5037503;28;20034;-87
2023/03/13 01:55:19;;;;;;;7.03;0.55;;;9.00;99.90;;;;;;5012971;28;20025;-88
2023/03/13 01:57:51;;;;;;;8.23;0.63;;;9.10;99.90;;;;;;5041189;28;20025;-87
2023/03/13 02:00:23;;;;;;;3.65;0.60;;;9.00;99.90;;;;;;5023834;28;20485;-88
2023/03/13 02:02:51;;;;;;;8.43;0.55;;;9.00;99.90;;;;;;5035362;28;20046;-88
2023/03/13 02:05:20;;;;;;;8.25;0.90;;;9.10;99.90;;;;;;5033416;28;20033;-88
2023/03/13 02:08:08;;;;;;;6.07;0.55;;;9.10;99.90;;;;;;5019884;28;20449;-88
2023/03/13 02:10:40;;;;;;;7.75;0.50;;;9.10;99.90;;;;;;5023163;28;20030;-88
2023/03/13 02:13:06;;;;;;;6.32;0.50;;;9.10;99.90;;;;;;5060114;28;20086;-88
2023/03/13 02:15:33;;;;;;;5.93;0.50;;;9.20;99.90;;;;;;5023858;28;20025;-89
2023/03/13 02:17:59;;;;;;;5.75;0.50;;;9.20;99.90;;;;;;5039802;28;20108;-87
2023/03/13 02:20:25;;;;;;;5.10;0.50;;;9.20;99.90;;;;;;5011613;28;20037;-88
2023/03/13 02:23:10;;;;;;;3.50;0.40;;;9.20;99.90;;;;;;5024323;28;20374;-88
2023/03/13 02:25:45;;;;;;;4.38;0.65;;;9.20;99.90;;;;;;5032603;28;20041;-88
2023/03/13 02:28:26;;;;;;;3.42;0.40;;;9.30;99.90;;;;;;5026867;28;20060;-87
2023/03/13 02:30:55;;;;;;;5.47;0.80;;;9.30;99.90;;;;;;5036165;28;20029;-88
2023/03/13 02:33:25;;;;;;;9.35;0.90;;;9.30;99.90;;;;;;5026372;28;20017;-87
2023/03/13 02:35:52;;;;;;;5.60;0.50;;;9.30;99.90;;;;;;5041324;28;20124;-86
2023/03/13 02:38:26;;;;;;;5.25;0.85;;;9.30;99.90;;;;;;5044958;28;20473;-87
2023/03/13 02:40:52;;;;;;;6.07;0.40;;;9.40;99.90;;;;;;5017279;28;20064;-88
2023/03/13 02:43:35;;;;;;;2.88;0.40;;;9.40;99.90;;;;;;5022183;28;20104;-89
2023/03/13 02:46:05;;;;;;;3.20;0.40;;;9.50;99.90;;;;;;5035447;28;20041;-90
2023/03/13 02:48:39;;;;;;;3.15;0.40;;;9.50;99.90;;;;;;5020151;28;20022;-87
2023/03/13 02:51:12;;;;;;;4.32;0.47;;;9.50;99.90;;;;;;5020111;28;20056;-88
2023/03/13 02:53:38;;;;;;;5.80;0.50;;;9.50;99.90;;;;;;5024578;28;20029;-87
2023/03/13 02:56:04;;;;;;;4.40;0.45;;;9.50;99.90;;;;;;5020361;28;20033;-87
2023/03/13 02:58:41;;;;;;;5.65;0.50;;;9.50;99.90;;;;;;5026394;28;20033;-87
2023/03/13 03:01:07;;;;;;;4.55;0.70;;;9.50;99.90;;;;;;5012123;28;20041;-88
2023/03/13 03:03:36;;;;;;;6.75;0.75;;;9.60;99.90;;;;;;5029754;28;20029;-88
2023/03/13 03:06:04;;;;;;;3.85;0.60;;;9.70;99.90;;;;;;5014534;28;20028;-87
2023/03/13 03:08:30;;;;;;;7.13;0.90;;;9.70;99.90;;;;;;5018689;28;20029;-88
2023/03/13 03:10:56;;;;;;;5.03;0.90;;;9.70;99.90;;;;;;5028756;28;20033;-88
2023/03/13 03:13:23;;;;;;;5.25;0.85;;;9.80;99.90;;;;;;5022341;28;20036;-88
2023/03/13 03:15:48;;;;;;;4.22;0.90;;;9.80;99.90;;;;;;5029638;28;20108;-88
2023/03/13 03:18:14;;;;;;;5.30;1.05;;;9.80;99.90;;;;;;5022162;28;20037;-88
2023/03/13 03:20:40;;;;;;;4.43;0.80;;;9.90;99.90;;;;;;5010380;28;20053;-87
2023/03/13 03:23:06;;;;;;;4.32;0.90;;;9.90;99.90;;;;;;5014223;28;20028;-88
2023/03/13 03:25:32;;;;;;;4.75;0.82;;;10.00;99.90;;;;;;5034571;28;20037;-87
2023/03/13 03:27:58;;;;;;;4.43;0.77;;;10.10;99.90;;;;;;5033406;28;20069;-88
2023/03/13 03:30:24;;;;;;;7.05;1.02;;;10.10;99.90;;;;;;5010861;28;20371;-87
2023/03/13 03:32:50;;;;;;;3.42;0.90;;;10.10;99.90;;;;;;5021748;28;20017;-88
2023/03/13 03:35:16;;;;;;;5.25;1.40;;;10.20;99.90;;;;;;5039877;28;20044;-86
2023/03/13 03:37:42;;;;;;;5.40;0.77;;;10.20;99.90;;;;;;5021268;28;20040;-88
2023/03/13 03:40:09;;;;;;;3.08;0.98;;;10.20;99.90;;;;;;5010680;28;20481;-87
2023/03/13 03:42:35;;;;;;;5.22;1.05;;;10.30;99.90;;;;;;5024200;28;20018;-88
2023/03/13 03:45:02;;;;;;;4.10;1.40;;;10.30;99.90;;;;;;5021214;28;20036;-87
2023/03/13 03:47:28;;;;;;;2.88;0.90;;;10.30;99.90;;;;;;5028695;28;20111;-87
2023/03/13 03:49:54;;;;;;;3.17;1.20;;;10.30;99.90;;;;;;5034553;28;20303;-90
2023/03/13 03:52:19;;;;;;;2.17;0.85;;;10.40;99.90;;;;;;5044803;28;20470;-87
2023/03/13 03:54:45;;;;;;;4.00;1.15;;;10.40;99.90;;;;;;5021047;28;20440;-88
2023/03/13 03:57:12;;;;;;;3.47;1.00;;;10.40;99.90;;;;;;5019969;28;20021;-87
2023/03/13 03:59:41;;;;;;;4.13;0.85;;;10.50;99.90;;;;;;5016671;28;20124;-88
2023/03/13 04:02:09;;;;;;;2.53;1.08;;;10.50;99.90;;;;;;5027952;28;20107;-89
2023/03/13 04:04:35;;;;;;;2.10;1.13;;;10.50;99.90;;;;;;5007322;28;20434;-89
2023/03/13 04:07:08;;;;;;;3.17;1.48;;;10.50;99.90;;;;;;5014912;28;20032;-88
2023/03/13 04:09:34;;;;;;;2.72;1.20;;;10.60;99.90;;;;;;5020823;28;20021;-88
2023/03/13 04:12:01;;;;;;;2.20;0.85;;;10.50;99.90;;;;;;5021867;28;20112;-88
2023/03/13 04:14:29;;;;;;;3.60;1.35;;;10.50;99.90;;;;;;5011116;28;20576;-88
2023/03/13 04:16:56;;;;;;;2.20;1.17;;;10.60;99.90;;;;;;5018565;28;20028;-88
2023/03/13 04:19:21;;;;;;;3.60;1.08;;;10.60;99.90;;;;;;5034276;28;20041;-87
2023/03/13 04:21:47;;;;;;;3.92;1.58;;;10.60;99.90;;;;;;5023777;28;20025;-87
2023/03/13 04:24:16;;;;;;;2.80;1.30;;;10.70;99.90;;;;;;5019343;28;20481;-87
2023/03/13 04:26:43;;;;;;;3.70;1.63;;;10.70;99.90;;;;;;5019147;28;20103;-88
2023/03/13 04:29:09;;;;;;;3.30;1.40;;;10.70;99.90;;;;;;5024249;28;20025;-86
2023/03/13 04:31:53;;;;;;;3.60;1.55;;;10.70;99.90;;;;;;5033045;28;20099;-88
2023/03/13 04:34:22;;;;;;;2.30;1.27;;;10.70;99.90;;;;;;5028896;28;20064;-87
2023/03/13 04:37:06;;;;;;;2.63;1.15;;;10.80;99.90;;;;;;5037460;28;20052;-87
2023/03/13 04:39:58;;;;;;;2.55;1.83;;;10.70;99.90;;;;;;5021577;28;20033;-88
2023/03/13 04:42:48;;;;;;;3.17;1.35;;;10.80;99.90;;;;;;5036026;28;20470;-88
2023/03/13 04:45:34;;;;;;;3.63;1.40;;;10.90;99.90;;;;;;5040970;28;20064;-87
2023/03/13 04:48:15;;;;;;;1.90;0.90;;;10.90;99.90;;;;;;5028416;28;20021;-88
2023/03/13 04:50:52;;;;;;;3.15;1.02;;;10.90;99.90;;;;;;5027209;28;20048;-88
2023/03/13 04:53:46;;;;;;;2.42;1.13;;;10.90;99.90;;;;;;5031080;28;20029;-87
2023/03/13 04:56:31;;;;;;;2.22;0.90;;;11.00;99.90;;;;;;5031399;28;20092;-89
2023/03/13 04:59:14;;;;;;;2.38;1.00;;;11.10;99.90;;;;;;5022595;28;20021;-87
2023/03/13 05:02:00;;;;;;;3.83;1.15;;;11.10;99.90;;;;;;5029992;28;20041;-88
2023/03/13 05:05:04;;;;;;;3.92;1.27;;;11.10;99.90;;;;;;4992072;28;20030;-89
2023/03/13 05:07:48;;;;;;;2.38;1.23;;;11.10;99.90;;;;;;5004002;28;20034;-88
2023/03/13 05:10:32;;;;;;;2.80;1.45;;;11.10;99.90;;;;;;5001790;28;20092;-88
2023/03/13 05:13:24;;;;;;;3.78;1.30;;;11.20;99.90;;;;;;4974673;28;20042;-87
2023/03/13 05:15:49;;;;;;;3.92;1.30;;;11.20;99.90;;;;;;4998817;28;20042;-87
2023/03/13 05:18:31;;;;;;;3.75;1.70;;;11.20;99.90;;;;;;4964998;28;20080;-88
2023/03/13 05:21:07;;;;;;;4.43;1.40;;;11.30;99.90;;;;;;4999614;28;20038;-87
2023/03/13 05:23:52;;;;;;;4.93;1.92;;;11.20;99.90;;;;;;4999860;28;20418;-87
2023/03/13 05:26:20;;;;;;;3.42;1.75;;;11.30;99.90;;;;;;5001551;28;20042;-87
2023/03/13 05:28:57;;;;;;;2.72;1.63;;;11.30;99.90;;;;;;4986785;28;20098;-89
2023/03/13 05:31:36;;;;;;;3.85;1.50;;;11.30;99.90;;;;;;4986670;28;20045;-87
2023/03/13 05:34:14;;;;;;;3.35;2.38;;;11.40;99.90;;;;;;4999147;28;20125;-85
2023/03/13 05:37:05;;;;;;;2.58;1.10;;;11.40;99.90;;;;;;5034985;28;20025;-87
2023/03/13 05:39:53;;;;;;;2.63;1.30;;;11.40;99.90;;;;;;5032596;28;20112;-87
2023/03/13 05:42:42;;;;;;;3.00;1.27;;;11.40;99.90;;;;;;5019383;28;20022;-86
2023/03/13 05:45:27;;;;;;;3.58;1.60;;;11.50;99.90;;;;;;5003222;28;20025;-86
2023/03/13 05:48:09;;;;;;;4.60;1.45;;;11.60;99.90;;;;;;4978247;28;20089;-86
2023/03/13 05:50:52;;;;;;;3.97;1.30;;;11.50;99.90;;;;;;5001878;28;20026;-84
2023/03/13 05:53:41;;;;;;;4.82;1.00;;;11.60;99.90;;;;;;5015275;28;20490;-89
2023/03/13 05:56:36;;;;;;;3.78;1.55;;;11.60;99.90;;;;;;4992023;28;20026;-87
2023/03/13 05:59:22;;;;;;;7.80;2.25;;;11.60;99.90;;;;;;5006996;28;20061;-86
2023/03/13 06:01:55;;;;;;;4.15;1.45;;;11.60;99.90;;;;;;4981858;28;20073;-87
2023/03/13 06:04:30;;;;;;;4.18;1.40;;;11.60;99.90;;;;;;5008439;28;20022;-85
2023/03/13 06:06:55;;;;;;;3.78;0.95;;;11.60;99.90;;;;;;4983570;28;20104;-87
2023/03/13 06:09:22;;;;;;;4.55;1.65;;;11.60;99.90;;;;;;5001690;28;20183;-87
2023/03/13 06:11:48;;;;;;;3.50;1.40;;;11.70;99.90;;;;;;4999416;28;20056;-88
2023/03/13 06:14:14;;;;;;;5.30;1.67;;;11.60;99.90;;;;;;5002851;28;20062;-90
2023/03/13 06:16:46;;;;;;;3.22;1.50;;;11.70;99.90;;;;;;5001629;28;20025;-85
2023/03/13 06:19:18;;;;;;;4.05;1.20;;;11.70;99.90;;;;;;5026667;28;20116;-85
2023/03/13 06:21:43;;;;;;;3.78;1.58;;;11.70;99.90;;;;;;5054492;28;20091;-85
2023/03/13 06:24:09;;;;;;;7.85;1.83;;;11.80;99.90;;;;;;5022526;28;20025;-88
2023/03/13 06:26:34;;;;;;;2.47;1.10;;;11.80;99.90;;;;;;5018110;28;20045;-87
2023/03/13 06:29:00;;;;;;;5.63;1.80;;;11.80;99.90;;;;;;5022222;28;20064;-85
2023/03/13 06:31:26;;;;;;;2.58;1.33;;;11.80;99.90;;;;;;5018211;28;20033;-86
2023/03/13 06:33:53;;;;;;;4.45;1.30;;;11.80;99.90;;;;;;5030261;28;20072;-85
2023/03/13 06:36:19;;;;;;;4.90;1.50;;;11.90;99.90;;;;;;5030884;28;20406;-87
2023/03/13 06:38:44;;;;;;;2.55;0.93;;;11.90;99.90;;;;;;5011137;28;20040;-88
2023/03/13 06:41:10;;;;;;;5.90;1.13;;;12.00;99.90;;;;;;5036767;28;20045;-86
2023/03/13 06:43:39;;;;;;;3.85;1.08;;;11.90;99.90;;;;;;5036666;28;20032;-87
2023/03/13 06:46:05;;;;;;;7.45;1.38;;;12.00;99.90;;;;;;5035955;28;20143;-85
2023/03/13 06:48:31;;;;;;;3.58;0.80;;;12.10;99.90;;;;;;5025781;28;20025;-86
2023/03/13 06:50:57;;;;;;;5.60;1.15;;;12.00;99.90;;;;;;5021058;28;20131;-89
2023/03/13 06:53:22;;;;;;;4.55;0.90;;;12.10;99.90;;;;;;5018071;28;20124;-87
2023/03/13 06:55:48;;;;;;;5.00;1.10;;;12.00;99.90;;;;;;5046880;28;20025;-87
2023/03/13 06:58:15;;;;;;;6.25;1.40;;;12.20;99.90;;;;;;5018761;28;20397;-88
2023/03/13 07:00:42;;;;;;;6.53;1.00;;;12.30;99.90;;;;;;5025865;28;20068;-86
2023/03/13 07:03:13;;;;;;;4.88;1.00;;;12.30;99.90;;;;;;5018321;28;20026;-88
2023/03/13 07:05:38;;;;;;;;;;;12.30;99.90;;;;;;5037368;28;20088;-86
2023/03/13 07:08:04;;;;;;;2.83;0.80;;;12.30;99.90;;;;;;5038281;28;19951;-87
2023/03/13 07:10:30;;;;;;;3.45;1.02;;;12.40;99.90;;;;;;5019264;28;20198;-87
2023/03/13 07:12:56;;;;;;;3.97;1.15;;;12.30;99.90;;;;;;5018346;28;20041;-89
2023/03/13 07:15:22;;;;;;;6.65;1.20;;;12.40;99.90;;;;;;5021410;28;20147;-89
2023/03/13 07:17:47;;;;;;;6.85;1.20;;;12.50;99.90;;;;;;5009348;28;20029;-89
2023/03/13 07:20:13;;;;;;;3.63;1.10;;;12.50;99.90;;;;;;5032981;28;20056;-88
2023/03/13 07:22:39;;;;;;;6.82;1.25;;;12.50;99.90;;;;;;5037624;28;20037;-87
2023/03/13 07:25:05;;;;;;;3.15;0.90;;;12.50;99.90;;;;;;5031377;28;20109;-91
2023/03/13 07:27:31;;;;;;;2.72;0.90;;;12.50;99.90;;;;;;5025257;28;20048;-89
2023/03/13 07:29:57;;;;;;;3.35;0.70;;;12.60;99.90;;;;;;5039279;28;20115;-88
2023/03/13 07:32:23;;;;;;;5.72;1.13;;;12.60;99.90;;;;;;5035652;28;20039;-88
2023/03/13 07:34:48;;;;;;;6.47;1.20;;;12.60;99.90;;;;;;5027789;28;20532;-87
2023/03/13 07:37:15;;;;;;;3.58;0.90;;;12.60;99.90;;;;;;5033538;28;20100;-89
2023/03/13 07:39:42;;;;;;;3.22;0.95;;;12.70;99.90;;;;;;5010100;28;20045;-89
2023/03/13 07:42:11;;;;;;;7.22;1.35;;;12.70;99.90;;;;;;5021588;28;20390;-87
2023/03/13 07:44:37;;;;;;;3.30;0.80;;;12.70;99.90;;;;;;5034809;28;20052;-89
2023/03/13 07:47:03;;;;;;;6.32;1.00;;;12.80;99.90;;;;;;5043375;28;20078;-88
2023/03/13 07:49:29;;;;;;;6.22;1.13;;;12.80;99.90;;;;;;5018671;28;20082;-90
2023/03/13 07:51:54;;;;;;;7.03;0.88;;;12.80;99.90;;;;;;5034321;28;20033;-91
2023/03/13 07:54:20;;;;;;;6.35;0.80;;;12.90;99.90;;;;;;5036822;28;20342;-88
2023/03/13 07:56:46;;;;;;;4.07;0.88;;;13.00;99.90;;;;;;5019487;28;20025;-88
2023/03/13 07:59:11;;;;;;;4.05;0.90;;;12.90;99.90;;;;;;5009839;28;20469;-90
2023/03/13 08:01:37;;;;;;;4.00;0.73;;;12.90;99.90;;;;;;5033667;28;20036;-89
2023/03/13 08:04:04;;;;;;;5.30;0.60;;;13.00;99.90;;;;;;5016640;28;20301;-89
2023/03/13 08:06:31;;;;;;;4.45;0.80;;;13.00;99.90;;;;;;5016767;28;20500;-86
2023/03/13 08:08:57;;;;;;;6.43;1.02;;;13.10;99.90;;;;;;5016789;28;20033;-91
2023/03/13 08:11:25;;;;;;;5.40;0.77;;;13.10;99.90;;;;;;5018991;28;20033;-90
2023/03/13 08:13:52;;;;;;;4.50;0.60;;;13.00;99.90;;;;;;5026922;28;20026;-88
2023/03/13 08:16:23;;;;;;;2.53;0.50;;;13.10;99.90;;;;;;5033445;28;20147;-89
2023/03/13 08:18:52;;;;;;;3.55;0.60;;;13.10;99.90;;;;;;5012906;28;20026;-88
2023/03/13 08:21:27;;;;;;;4.03;0.52;;;13.00;99.90;;;;;;5034172;28;20052;-87
2023/03/13 08:23:55;;;;;;;4.25;0.50;;;13.00;99.90;;;;;;5034546;28;20028;-91
2023/03/13 08:26:22;;;;;;;3.60;0.60;;;13.10;99.90;;;;;;5043911;28;20026;-89
2023/03/13 08:28:53;;;;;;;3.72;0.70;;;13.20;99.90;;;;;;5029764;28;20025;-90
2023/03/13 08:31:28;;;;;;;5.07;0.75;;;13.20;99.90;;;;;;5009526;28;20029;-91
2023/03/13 08:33:54;;;;;;;1.58;0.40;;;13.20;99.90;;;;;;5038759;28;20033;-89
2023/03/13 08:36:32;;;;;;;4.93;0.60;;;13.30;99.90;;;;;;5017452;28;20516;-89
2023/03/13 08:39:00;;;;;;;4.50;0.80;;;13.30;99.90;;;;;;5028398;28;20083;-90
2023/03/13 08:41:29;;;;;;;3.40;0.50;;;13.30;99.90;;;;;;5016787;28;20048;-89
2023/03/13 08:43:56;;;;;;;4.97;0.50;;;13.30;99.90;;;;;;5018393;28;20036;-90
2023/03/13 08:46:23;;;;;;;4.30;0.55;;;13.30;99.90;;;;;;5012360;28;20119;-88
2023/03/13 08:48:53;;;;;;;4.82;0.50;;;13.30;99.90;;;;;;5035420;28;20104;-90
2023/03/13 08:51:19;;;;;;;;;;;13.30;99.90;;;;;;5007003;28;20037;-87
2023/03/13 08:53:45;;;;;;;5.32;0.40;;;13.40;99.90;;;;;;5027474;28;19958;-87
2023/03/13 08:56:14;;;;;;;3.20;0.50;;;13.30;99.90;;;;;;5032763;28;20029;-88
2023/03/13 08:58:40;;;;;;;2.72;0.60;;;13.40;99.90;;;;;;5033316;28;20450;-89
2023/03/13 09:01:09;;;;;;;2.47;0.45;;;13.40;99.90;;;;;;5039270;28;20072;-87
2023/03/13 09:03:34;;;;;;;2.47;0.57;;;13.30;99.90;;;;;;5028615;28;20103;-89
2023/03/13 09:06:00;;;;;;;2.28;0.50;;;13.30;99.90;;;;;;5028881;28;20115;-87
2023/03/13 09:08:27;;;;;;;3.15;0.57;;;13.40;99.90;;;;;;5035431;28;20124;-88
2023/03/13 09:11:01;;;;;;;3.25;0.50;;;13.40;99.90;;;;;;5011755;28;20029;-89
2023/03/13 09:13:28;;;;;;;3.17;0.70;;;13.50;99.90;;;;;;5033513;28;20029;-86
2023/03/13 09:16:03;;;;;;;3.35;0.40;;;13.60;99.90;;;;;;5016926;28;20033;-89
2023/03/13 09:18:29;;;;;;;6.45;0.55;;;13.50;99.90;;;;;;5017013;28;20026;-87
2023/03/13 09:20:55;;;;;;;6.07;1.25;;;13.60;99.90;;;;;;5020519;28;20033;-88
2023/03/13 09:23:22;;;;;;;4.28;0.50;;;13.60;99.90;;;;;;5026449;28;20409;-87
2023/03/13 09:25:51;;;;;;;4.07;0.68;;;13.50;99.90;;;;;;5028896;28;20318;-85
2023/03/13 09:28:16;;;;;;;2.67;0.70;;;13.50;99.90;;;;;;5018986;28;20049;-85
2023/03/13 09:30:42;;;;;;;5.32;0.70;;;13.70;99.90;;;;;;5037287;28;20083;-90
2023/03/13 09:33:08;;;;;;;4.47;0.70;;;13.80;99.90;;;;;;5038483;28;20117;-84
2023/03/13 09:35:33;;;;;;;4.45;0.70;;;13.80;99.90;;;;;;5025602;28;20060;-84
2023/03/13 09:37:59;;;;;;;3.65;0.50;;;13.90;99.90;;;;;;5040531;28;20029;-86
2023/03/13 09:40:27;;;;;;;3.88;0.47;;;14.30;99.90;;;;;;5029384;28;20037;-87
2023/03/13 09:42:57;;;;;;;2.97;0.40;;;14.40;99.90;;;;;;5021448;28;20052;-86
2023/03/13 09:45:41;;;;;;;1.52;0.40;;;14.70;99.90;;;;;;5005538;28;20108;-89
2023/03/13 09:48:21;;;;;;;3.38;0.50;;;14.80;99.90;;;;;;5014746;28;20025;-86
2023/03/13 09:51:00;;;;;;;3.28;0.40;;;15.20;99.90;;;;;;5029099;28;20055;-85
2023/03/13 09:53:52;;;;;;;1.70;0.40;;;15.60;99.90;;;;;;5031932;28;20029;-89
2023/03/13 09:56:30;;;;;;;2.22;0.40;;;15.30;99.90;;;;;;5037297;28;20037;-86
2023/03/13 09:59:10;;;;;;;2.00;0.40;;;14.90;99.90;;;;;;5031809;28;20469;-86
2023/03/13 10:01:39;;;;;;;3.00;0.80;;;14.80;99.90;;;;;;5013604;28;20053;-91
2023/03/13 10:04:20;;;;;;;2.30;0.32;;;14.80;99.90;;;;;;5039491;28;20021;-88
2023/03/13 10:06:48;;;;;;;3.38;0.40;;;14.80;99.90;;;;;;5035895;28;20037;-86
2023/03/13 10:09:26;;;;;;;4.40;0.52;;;14.80;99.90;;;;;;5028321;28;20026;-91
2023/03/13 10:12:14;;;;;;;2.50;0.38;;;14.70;99.90;;;;;;5036419;28;20086;-89
2023/03/13 10:14:54;;;;;;;3.83;0.40;;;14.70;99.90;;;;;;5032979;28;20120;-86
2023/03/13 10:17:34;;;;;;;2.47;0.40;;;14.80;99.90;;;;;;5026123;28;20393;-89
2023/03/13 10:20:26;;;;;;;3.23;0.40;;;14.80;99.90;;;;;;5037572;28;20077;-84
2023/03/13 10:23:06;;;;;;;2.13;0.30;;;14.80;99.90;;;;;;5037489;28;20030;-88
2023/03/13 10:25:37;;;;;;;2.65;0.40;;;14.80;99.90;;;;;;5034098;28;20032;-87
2023/03/13 10:28:04;;;;;;;2.03;0.60;;;14.80;99.90;;;;;;5023345;28;20128;-91
2023/03/13 10:30:34;;;;;;;2.42;0.40;;;14.90;99.90;;;;;;5024185;28;20120;-89
2023/03/13 10:33:13;;;;;;;2.08;0.40;;;14.90;99.90;;;;;;5021020;28;20025;-86
2023/03/13 10:35:41;;;;;;;3.00;0.30;;;14.90;99.90;;;;;;5021693;28;20044;-92
2023/03/13 10:38:18;;;;;;;2.90;0.40;;;14.90;99.90;;;;;;5033020;28;20028;-91
2023/03/13 10:40:59;;;;;;;1.65;0.28;;;15.00;99.90;;;;;;5009508;28;20037;-90
2023/03/13 10:43:27;;;;;;;1.58;0.30;;;15.00;99.90;;;;;;5035300;28;20030;-89
2023/03/13 10:45:52;;;;;;;1.60;0.40;;;15.00;99.90;;;;;;5026350;28;20063;-91
2023/03/13 10:48:24;;;;;;;2.22;0.40;;;15.10;99.90;;;;;;5021932;28;20052;-90
2023/03/13 10:50:53;;;;;;;1.55;0.35;;;15.20;99.90;;;;;;5034876;28;20079;-91
2023/03/13 10:53:27;;;;;;;1.88;0.30;;;15.30;99.90;;;;;;5022255;28;20437;-93
2023/03/13 10:56:13;;;;;;;1.75;0.30;;;15.40;99.90;;;;;;5008311;28;20034;-89
2023/03/13 10:58:45;;;;;;;1.77;0.30;;;15.50;99.90;;;;;;5016316;28;20474;-89
2023/03/13 11:01:20;;;;;;;3.03;0.40;;;15.60;99.90;;;;;;5021722;28;20068;-88
2023/03/13 11:03:47;;;;;;;1.58;0.30;;;15.50;99.90;;;;;;5010776;28;20030;-90
2023/03/13 11:06:29;;;;;;;4.32;0.38;;;15.50;99.90;;;;;;5036851;28;20120;-87
2023/03/13 11:09:03;;;;;;;2.50;0.38;;;15.50;99.90;;;;;;5029844;28;20117;-89
2023/03/13 11:11:29;;;;;;;0.88;0.20;;;15.70;99.90;;;;;;5028298;28;20030;-88
2023/03/13 11:14:19;;;;;;;1.85;0.40;;;15.90;99.90;;;;;;5023082;28;20025;-85
2023/03/13 11:17:08;;;;;;;0.85;0.20;;;15.80;99.90;;;;;;5026536;28;20021;-88
2023/03/13 11:19:49;;;;;;;3.75;0.30;;;15.70;99.90;;;;;;5020346;28;20041;-88
2023/03/13 11:22:49;;;;;;;2.28;0.20;;;15.90;99.90;;;;;;5031422;28;20059;-89
2023/03/13 11:25:25;;;;;;;1.40;0.30;;;15.90;99.90;;;;;;5011800;28;20816;-94
2023/03/13 11:28:10;;;;;;;2.25;0.30;;;15.90;99.90;;;;;;5030801;28;20136;-90
2023/03/13 11:31:18;;;;;;;3.42;0.40;;;15.80;99.90;;;;;;5032105;28;20109;-89
2023/03/13 11:33:57;;;;;;;1.30;0.20;;;16.00;99.90;;;;;;5007286;28;20036;-94
2023/03/13 11:36:44;;;;;;;2.60;0.20;;;16.10;99.90;;;;;;5024785;28;20029;-84
2023/03/13 11:39:43;;;;;;;3.40;0.38;;;16.50;99.90;;;;;;5025872;28;20083;-81
2023/03/13 11:42:34;;;;;;;2.63;0.40;;;16.30;99.90;;;;;;5021964;28;20034;-85
2023/03/13 11:45:20;;;;;;;2.83;0.30;;;16.30;99.90;;;;;;5031478;28;20151;-86
2023/03/13 11:48:16;;;;;;;1.63;0.20;;;16.30;99.90;;;;;;5010315;28;20044;-88
2023/03/13 11:50:51;;;;;;;1.33;0.20;;;16.50;99.90;;;;;;5048316;28;20032;-83
2023/03/13 11:53:45;;;;;;;2.55;0.30;;;16.90;99.90;;;;;;5030704;28;20037;-84
2023/03/13 11:56:26;;;;;;;0.63;0.20;;;17.30;99.90;;;;;;5009151;28;20698;-86
2023/03/13 11:59:19;;;;;;;1.67;0.30;;;17.70;99.90;;;;;;5015666;28;20397;-83
2023/03/13 12:01:53;;;;;;;1.90;0.30;;;17.60;99.90;;;;;;5015016;28;20441;-83
2023/03/13 12:04:21;;;;;;;3.22;0.20;;;17.60;99.90;;;;;;5027170;28;20061;-86
2023/03/13 12:06:58;;;;;;;1.35;0.20;;;17.60;99.90;;;;;;5013807;28;20068;-83
2023/03/13 12:09:43;;;;;;;0.60;0.20;;;17.10;99.90;;;;;;5030716;28;20047;-85
2023/03/13 12:12:22;;;;;;;1.55;0.20;;;16.90;99.90;;;;;;5049613;28;20037;-86
2023/03/13 12:14:59;;;;;;;1.85;0.20;;;16.90;99.90;;;;;;5031685;28;20399;-84
2023/03/13 12:17:37;;;;;;;3.05;0.30;;;17.30;99.90;;;;;;5032969;28;20120;-86
2023/03/13 12:20:18;;;;;;;2.92;0.20;;;17.40;99.90;;;;;;5045949;28;20126;-84
2023/03/13 12:22:57;;;;;;;1.20;0.20;;;17.30;99.90;;;;;;4995873;28;20049;-82
2023/03/13 12:25:49;;;;;;;2.65;0.20;;;17.50;99.90;;;;;;5020569;28;20100;-83
2023/03/13 12:28:17;;;;;;;2.85;0.20;;;17.60;99.90;;;;;;4996367;28;20148;-82
2023/03/13 12:31:05;;;;;;;1.50;0.20;;;17.80;99.90;;;;;;5010366;28;20056;-83
2023/03/13 12:33:46;;;;;;;2.90;0.40;;;17.40;99.90;;;;;;5002873;28;20663;-84
2023/03/13 12:36:28;;;;;;;1.60;0.25;;;16.90;99.90;;;;;;5019799;28;20508;-84
2023/03/13 12:39:28;;;;;;;2.13;0.57;;;16.70;99.90;;;;;;5002589;28;20044;-82
2023/03/13 12:42:22;;;;;;;2.35;0.28;;;16.70;99.90;;;;;;5019362;28;20978;-80
2023/03/13 12:44:48;;;;;;;1.40;0.20;;;17.30;99.90;;;;;;5001844;28;20037;-83
2023/03/13 12:47:51;;;;;;;3.53;0.45;;;17.50;99.90;;;;;;5021127;28;20029;-83
2023/03/13 12:50:42;;;;;;;1.73;0.20;;;17.20;99.90;;;;;;5002321;28;20052;-83
2023/03/13 12:53:19;;;;;;;0.93;0.22;;;16.80;99.90;;;;;;4996924;28;20041;-85
2023/03/13 12:56:01;;;;;;;1.42;0.20;;;17.20;99.90;;;;;;5002799;28;20041;-82
2023/03/13 12:58:48;;;;;;;1.85;0.30;;;17.10;99.90;;;;;;5018818;28;20029;-85
2023/03/13 13:01:30;;;;;;;1.58;0.20;;;16.90;99.90;;;;;;5009412;28;20118;-83
2023/03/13 13:04:04;;;;;;;1.50;0.28;;;16.80;99.90;;;;;;5002478;28;20087;-82
2023/03/13 13:06:56;;;;;;;1.20;0.20;;;16.80;99.90;;;;;;5006299;28;20033;-84
2023/03/13 13:09:23;;;;;;;1.42;0.20;;;16.90;99.90;;;;;;5011514;28;20037;-83
2023/03/13 13:11:50;;;;;;;0.55;0.20;;;17.30;99.90;;;;;;5023820;28;20037;-84
2023/03/13 13:14:16;;;;;;;2.35;0.20;;;17.60;99.90;;;;;;5024586;28;20047;-87
2023/03/13 13:16:49;;;;;;;1.55;0.30;;;17.30;99.90;;;;;;5031260;28;20029;-82
2023/03/13 13:19:24;;;;;;;1.98;0.20;;;17.50;99.90;;;;;;5037772;28;21026;-83